createdAt,value
2022-08-05T00:02:23.674Z,94660.72
2022-08-05T00:04:55.782Z,94648.34
2022-08-05T00:07:59.425Z,94648.00
2022-08-05T00:10:12.087Z,94642.28
2022-08-05T00:12:55.825Z,94645.84
2022-08-05T00:15:57.958Z,94640.91
2022-08-05T00:18:21.284Z,94638.50
2022-08-05T00:20:50.538Z,94637.38
2022-08-05T00:23:44.701Z,94639.31
2022-08-05T00:26:07.879Z,94629.78
2022-08-05T00:28:36.438Z,94625.69
2022-08-05T00:31:07.633Z,94631.41
2022-08-05T00:34:55.263Z,94628.31
2022-08-05T00:37:10.725Z,94619.56
2022-08-05T00:39:14.014Z,94630.59
2022-08-05T00:41:55.020Z,94627.81
2022-08-05T00:44:30.756Z,94624.06
2022-08-05T00:47:02.217Z,94621.41
2022-08-05T00:49:44.766Z,94628.31
2022-08-05T00:52:28.192Z,94631.88
2022-08-05T00:54:56.777Z,94626.09
2022-08-05T00:57:25.502Z,94617.63
2022-08-05T01:00:07.568Z,94620.94
2022-08-05T01:02:40.618Z,94614.53
2022-08-05T01:05:10.147Z,94615.53
2022-08-05T01:07:38.271Z,94621.91
2022-08-05T01:10:31.670Z,94620.34
2022-08-05T01:13:13.220Z,94614.81
2022-08-05T01:15:54.970Z,94615.25
2022-08-05T01:18:33.961Z,94606.75
2022-08-05T01:21:23.513Z,94611.53
2022-08-05T01:24:20.916Z,94609.53
2022-08-05T01:27:17.881Z,94612.56
2022-08-05T01:29:53.693Z,94619.88
2022-08-05T01:32:27.711Z,94611.41
2022-08-05T01:35:00.631Z,94616.09
2022-08-05T01:37:37.204Z,94615.06
2022-08-05T01:40:13.612Z,94612.66
2022-08-05T01:42:47.955Z,94613.09
2022-08-05T01:45:19.148Z,94619.53
2022-08-05T01:47:50.427Z,94618.72
2022-08-05T01:50:28.803Z,94615.97
2022-08-05T01:53:01.803Z,94617.81
2022-08-05T01:55:36.330Z,94612.59
2022-08-05T01:58:10.466Z,94616.84
2022-08-05T02:00:52.073Z,94609.75
2022-08-05T02:03:31.638Z,94607.34
2022-08-05T02:06:03.777Z,94613.97
2022-08-05T02:08:57.920Z,94604.69
2022-08-05T02:11:33.408Z,94601.72
2022-08-05T02:14:07.376Z,94602.81
2022-08-05T02:16:52.465Z,94605.91
2022-08-05T02:19:34.188Z,94608.81
2022-08-05T02:22:10.287Z,94596.13
2022-08-05T02:24:57.264Z,94594.66
2022-08-05T02:27:58.293Z,94598.97
2022-08-05T02:30:18.833Z,94594.97
2022-08-05T02:32:52.431Z,94589.47
2022-08-05T02:35:27.933Z,94588.88
2022-08-05T02:38:00.087Z,94597.94
2022-08-05T02:40:28.810Z,94589.25
2022-08-05T02:42:57.683Z,94596.25
2022-08-05T02:45:28.926Z,94596.25
2022-08-05T02:48:19.960Z,94603.50
2022-08-05T02:50:59.739Z,94593.91
2022-08-05T02:53:29.217Z,94594.72
2022-08-05T02:56:09.573Z,94589.53
2022-08-05T02:58:43.726Z,94592.59
2022-08-05T03:01:19.362Z,94585.59
2022-08-05T03:04:03.251Z,94591.31
2022-08-05T03:06:53.647Z,94594.34
2022-08-05T03:09:27.088Z,94588.31
2022-08-05T03:12:06.607Z,94592.03
2022-08-05T03:14:45.621Z,94581.72
2022-08-05T03:17:14.274Z,94592.28
2022-08-05T03:19:45.514Z,94593.00
2022-08-05T03:22:16.277Z,94594.59
2022-08-05T03:24:50.954Z,94592.88
2022-08-05T03:27:21.611Z,94589.47
2022-08-05T03:30:07.602Z,94583.47
2022-08-05T03:32:37.590Z,94582.69
2022-08-05T03:35:09.166Z,94584.72
2022-08-05T03:37:45.794Z,94589.03
2022-08-05T03:40:24.214Z,94584.94
2022-08-05T03:43:01.491Z,94590.97
2022-08-05T03:45:57.662Z,94588.34
2022-08-05T03:48:27.245Z,94593.25
2022-08-05T03:52:36.505Z,94601.72
2022-08-05T03:55:52.150Z,94594.84
2022-08-05T03:56:48.241Z,94600.09
2022-08-05T03:59:22.831Z,94594.84
2022-08-05T04:01:58.942Z,94595.06
2022-08-05T04:04:29.046Z,94594.69
2022-08-05T04:07:00.272Z,94591.88
2022-08-05T04:09:29.359Z,94589.97
2022-08-05T04:11:58.026Z,94598.88
2022-08-05T04:14:29.903Z,94596.41
2022-08-05T04:17:00.934Z,94598.38
2022-08-05T04:19:31.216Z,94594.53
2022-08-05T04:22:08.613Z,94602.13
2022-08-05T04:24:44.333Z,94591.81
2022-08-05T04:27:42.107Z,94589.00
2022-08-05T04:30:10.763Z,94584.97
2022-08-05T04:32:38.998Z,94598.66
2022-08-05T04:35:17.514Z,94600.03
2022-08-05T04:38:01.984Z,94598.78
2022-08-05T04:40:35.418Z,94603.00
2022-08-05T04:43:03.555Z,94600.94
2022-08-05T04:45:49.021Z,94599.19
2022-08-05T04:48:27.471Z,94594.81
2022-08-05T04:51:02.684Z,94606.22
2022-08-05T04:53:35.508Z,94604.38
2022-08-05T04:56:32.342Z,94610.50
2022-08-05T04:58:52.108Z,94611.81
2022-08-05T05:02:04.082Z,94599.75
2022-08-05T05:04:08.601Z,94612.78
2022-08-05T05:06:44.899Z,94599.53
2022-08-05T05:09:18.982Z,94606.78
2022-08-05T05:11:54.588Z,94607.03
2022-08-05T05:14:28.191Z,94597.44
2022-08-05T05:17:00.591Z,94605.53
2022-08-05T05:19:37.301Z,94615.34
2022-08-05T05:22:24.576Z,94611.78
2022-08-05T05:25:01.192Z,94607.22
2022-08-05T05:27:53.470Z,94614.47
2022-08-05T05:30:29.213Z,94613.09
2022-08-05T05:33:09.080Z,94610.94
2022-08-05T05:35:45.340Z,94612.78
2022-08-05T05:38:14.378Z,94611.66
2022-08-05T05:40:49.427Z,94601.22
2022-08-05T05:43:28.167Z,94606.38
2022-08-05T05:46:13.765Z,94618.06
2022-08-05T05:48:44.760Z,94617.25
2022-08-05T05:51:19.583Z,94617.75
2022-08-05T05:53:58.344Z,94621.66
2022-08-05T05:56:32.675Z,94619.25
2022-08-05T05:59:05.470Z,94617.50
2022-08-05T06:01:37.945Z,94634.78
2022-08-05T06:04:08.347Z,94633.56
2022-08-05T06:06:42.049Z,94639.47
2022-08-05T06:09:16.646Z,94638.06
2022-08-05T06:11:59.012Z,94641.97
2022-08-05T06:14:28.969Z,94641.97
2022-08-05T06:16:57.882Z,94634.03
2022-08-05T06:19:34.509Z,94646.41
2022-08-05T06:22:03.880Z,94650.34
2022-08-05T06:24:32.008Z,94650.22
2022-08-05T06:27:01.840Z,94648.56
2022-08-05T06:29:49.348Z,94654.50
2022-08-05T06:32:26.263Z,94636.88
2022-08-05T06:34:58.677Z,94643.94
2022-08-05T06:37:56.082Z,94645.56
2022-08-05T06:40:18.161Z,94643.06
2022-08-05T06:42:52.528Z,94644.03
2022-08-05T06:45:44.730Z,94639.16
2022-08-05T06:48:44.335Z,94644.69
2022-08-05T06:50:58.376Z,94637.59
2022-08-05T06:53:29.158Z,94647.28
2022-08-05T06:55:58.425Z,94640.78
2022-08-05T06:58:34.733Z,94635.13
2022-08-05T07:01:06.200Z,94638.72
2022-08-05T07:03:34.817Z,94633.25
2022-08-05T07:06:05.818Z,94640.53
2022-08-05T07:08:42.154Z,94640.28
2022-08-05T07:11:15.440Z,94630.72
2022-08-05T07:14:02.675Z,94630.69
2022-08-05T07:17:58.903Z,94645.00
2022-08-05T07:22:28.504Z,94651.38
2022-08-05T07:25:23.515Z,94647.53
2022-08-05T07:27:57.770Z,94650.31
2022-08-05T07:30:32.418Z,94654.41
2022-08-05T07:33:01.931Z,94650.00
2022-08-05T07:36:01.558Z,94650.09
2022-08-05T07:38:32.761Z,94641.41
2022-08-05T07:42:07.128Z,94644.16
2022-08-05T07:43:52.574Z,94644.97
2022-08-05T07:46:25.230Z,94643.50
2022-08-05T07:49:02.294Z,94641.47
2022-08-05T07:51:40.687Z,94632.75
2022-08-05T07:54:18.634Z,94639.19
2022-08-05T07:57:14.043Z,94646.72
2022-08-05T07:59:39.973Z,94643.28
2022-08-05T08:02:15.575Z,94634.28
2022-08-05T08:04:46.370Z,94640.22
2022-08-05T08:07:15.319Z,94636.81
2022-08-05T08:09:43.853Z,94639.78
2022-08-05T08:12:37.025Z,94644.06
2022-08-05T08:15:03.632Z,94634.22
2022-08-05T08:17:35.397Z,94641.94
2022-08-05T08:20:22.573Z,94622.84
2022-08-05T08:22:55.713Z,94635.38
2022-08-05T08:25:27.012Z,94630.81
2022-08-05T08:28:18.458Z,94634.81
2022-08-05T08:31:04.380Z,94635.06
2022-08-05T08:33:35.880Z,94630.56
2022-08-05T08:36:40.248Z,94631.31
2022-08-05T08:38:55.948Z,94628.66
2022-08-05T08:41:51.930Z,94625.72
2022-08-05T08:45:24.058Z,94628.31
2022-08-05T08:47:48.117Z,94625.59
2022-08-05T08:50:07.739Z,94624.75
2022-08-05T08:52:51.857Z,94620.22
2022-08-05T08:56:03.202Z,94624.09
2022-08-05T08:58:12.857Z,94616.84
2022-08-05T09:00:43.329Z,94624.16
2022-08-05T09:03:16.226Z,94612.66
2022-08-05T09:06:08.020Z,94624.59
2022-08-05T09:08:40.509Z,94624.22
2022-08-05T09:11:08.916Z,94610.25
2022-08-05T09:14:10.344Z,94606.66
2022-08-05T09:16:30.560Z,94605.19
2022-08-05T09:18:59.318Z,94600.41
2022-08-05T09:22:22.593Z,94605.69
2022-08-05T09:24:18.164Z,94594.78
2022-08-05T09:26:51.709Z,94593.19
2022-08-05T09:29:20.490Z,94595.00
2022-08-05T09:32:40.811Z,94574.19
2022-08-05T09:34:59.064Z,94580.00
2022-08-05T09:38:13.075Z,94580.53
2022-08-05T09:40:32.276Z,94580.75
2022-08-05T09:43:01.788Z,94562.50
2022-08-05T09:46:06.086Z,94572.63
2022-08-05T09:48:28.490Z,94572.44
2022-08-05T09:50:59.695Z,94561.13
2022-08-05T09:53:51.112Z,94565.31
2022-08-05T09:56:26.314Z,94565.63
2022-08-05T09:59:01.140Z,94556.13
2022-08-05T10:01:35.179Z,94550.66
2022-08-05T10:04:09.997Z,94555.97
2022-08-05T10:06:40.604Z,94553.84
2022-08-05T10:09:27.736Z,94547.75
2022-08-05T10:11:56.864Z,94532.44
2022-08-05T10:14:28.192Z,94542.69
2022-08-05T10:17:36.776Z,94533.84
2022-08-05T10:20:03.613Z,94547.19
2022-08-05T10:22:39.490Z,94545.22
2022-08-05T10:25:14.422Z,94545.84
2022-08-05T10:28:13.421Z,94541.50
2022-08-05T10:31:20.479Z,94533.25
2022-08-05T10:33:20.068Z,94539.69
2022-08-05T10:35:58.942Z,94537.03
2022-08-05T10:38:33.078Z,94519.03
2022-08-05T10:41:10.195Z,94528.69
2022-08-05T10:43:52.033Z,94530.53
2022-08-05T10:46:23.628Z,94526.53
2022-08-05T10:49:01.477Z,94537.78
2022-08-05T10:51:48.655Z,94526.72
2022-08-05T10:54:56.112Z,94518.84
2022-08-05T10:57:32.274Z,94527.06
2022-08-05T11:00:19.595Z,94520.81
2022-08-05T11:03:24.776Z,94514.31
2022-08-05T11:06:05.507Z,94505.25
2022-08-05T11:08:37.992Z,94498.81
2022-08-05T11:11:44.783Z,94504.84
2022-08-05T11:14:57.784Z,94508.28
2022-08-05T11:18:09.803Z,94504.28
2022-08-05T11:20:39.212Z,94499.56
2022-08-05T11:24:04.448Z,94496.16
2022-08-05T11:26:28.207Z,94506.13
2022-08-05T11:29:11.692Z,94506.34
2022-08-05T11:31:57.500Z,94506.06
2022-08-05T11:34:39.432Z,94500.78
2022-08-05T11:38:28.578Z,94501.38
2022-08-05T11:40:02.911Z,94492.56
2022-08-05T11:42:37.916Z,94497.22
2022-08-05T11:45:14.464Z,94496.75
2022-08-05T11:47:59.712Z,94485.41
2022-08-05T11:50:29.301Z,94490.13
2022-08-05T11:52:58.370Z,94490.16
2022-08-05T11:55:32.014Z,94481.84
2022-08-05T11:58:09.556Z,94482.25
2022-08-05T12:00:41.611Z,94481.22
2022-08-05T12:03:29.681Z,94479.56
2022-08-05T12:06:02.159Z,94473.09
2022-08-05T12:08:32.713Z,94474.91
2022-08-05T12:11:06.266Z,94468.34
2022-08-05T12:13:48.403Z,94468.28
2022-08-05T12:16:20.306Z,94460.53
2022-08-05T12:18:55.874Z,94461.56
2022-08-05T12:21:30.161Z,94469.47
2022-08-05T12:24:05.034Z,94465.78
2022-08-05T12:26:33.916Z,94461.91
2022-08-05T12:29:03.322Z,94462.22
2022-08-05T12:31:46.066Z,94452.78
2022-08-05T12:34:23.608Z,94463.88
2022-08-05T12:36:54.607Z,94455.06
2022-08-05T12:39:23.744Z,94453.16
2022-08-05T12:42:00.584Z,94451.41
2022-08-05T12:44:33.400Z,94443.25
2022-08-05T12:47:03.635Z,94432.84
2022-08-05T12:50:02.362Z,94434.31
2022-08-05T12:52:38.606Z,94426.97
2022-08-05T12:55:22.689Z,94434.19
2022-08-05T12:58:52.494Z,94428.34
2022-08-05T13:02:00.938Z,94425.94
2022-08-05T13:03:41.645Z,94419.03
2022-08-05T13:06:17.006Z,94428.53
2022-08-05T13:08:51.506Z,94423.41
2022-08-05T13:11:59.643Z,94426.25
2022-08-05T13:14:36.072Z,94418.66
2022-08-05T13:17:10.314Z,94423.69
2022-08-05T13:19:40.322Z,94419.81
2022-08-05T13:22:29.230Z,94416.25
2022-08-05T13:25:00.757Z,94415.91
2022-08-05T13:27:38.040Z,94404.59
2022-08-05T13:30:34.389Z,94408.00
2022-08-05T13:33:01.254Z,94407.06
2022-08-05T13:35:47.363Z,94409.66
2022-08-05T13:38:31.075Z,94405.41
2022-08-05T13:41:04.290Z,94406.28
2022-08-05T13:43:45.511Z,94402.56
2022-08-05T13:46:51.013Z,94411.06
2022-08-05T13:49:10.305Z,94405.69
2022-08-05T13:51:41.733Z,94398.47
2022-08-05T13:54:16.406Z,94405.53
2022-08-05T13:56:50.775Z,94404.97
2022-08-05T13:59:21.448Z,94398.09
2022-08-05T14:01:58.360Z,94396.53
2022-08-05T14:04:50.118Z,94394.09
2022-08-05T14:07:25.862Z,94397.41
2022-08-05T14:10:11.524Z,94394.28
2022-08-05T14:12:40.010Z,94387.91
2022-08-05T14:16:09.217Z,94390.63
2022-08-05T14:18:00.935Z,94383.75
2022-08-05T14:20:30.678Z,94379.03
2022-08-05T14:22:58.799Z,94382.66
2022-08-05T14:25:30.318Z,94387.38
2022-08-05T14:27:58.722Z,94382.94
2022-08-05T14:30:28.283Z,94374.72
2022-08-05T14:32:58.788Z,94379.09
2022-08-05T14:35:36.320Z,94374.44
2022-08-05T14:38:05.692Z,94373.44
2022-08-05T14:40:55.361Z,94373.59
2022-08-05T14:43:53.969Z,94376.00
2022-08-05T14:46:13.051Z,94361.31
2022-08-05T14:48:41.475Z,94361.88
2022-08-05T14:51:11.215Z,94366.59
2022-08-05T14:53:44.850Z,94357.88
2022-08-05T14:56:14.829Z,94353.66
2022-08-05T14:58:53.235Z,94352.50
2022-08-05T15:01:47.182Z,94361.16
2022-08-05T15:04:11.846Z,94349.66
2022-08-05T15:06:40.505Z,94352.47
2022-08-05T15:09:09.117Z,94354.97
2022-08-05T15:11:51.275Z,94347.19
2022-08-05T15:14:34.963Z,94349.16
2022-08-05T15:17:09.990Z,94350.47
2022-08-05T15:19:55.124Z,94345.50
2022-08-05T15:22:27.110Z,94342.25
2022-08-05T15:24:56.712Z,94341.63
2022-08-05T15:27:32.043Z,94343.03
2022-08-05T15:30:04.440Z,94332.19
2022-08-05T15:32:32.860Z,94336.84
2022-08-05T15:35:06.499Z,94319.19
2022-08-05T15:38:16.371Z,94321.25
2022-08-05T15:41:03.884Z,94325.00
2022-08-05T15:43:20.273Z,94323.09
2022-08-05T15:46:00.649Z,94323.16
2022-08-05T15:48:32.316Z,94324.00
2022-08-05T15:51:03.653Z,94318.66
2022-08-05T15:53:38.563Z,94317.69
2022-08-05T15:56:19.888Z,94321.31
2022-08-05T15:58:49.962Z,94308.88
2022-08-05T16:01:20.184Z,94316.16
2022-08-05T16:03:57.384Z,94320.97
2022-08-05T16:06:25.394Z,94322.38
2022-08-05T16:08:55.306Z,94322.25
2022-08-05T16:11:40.143Z,94326.31
2022-08-05T16:14:17.286Z,94323.72
2022-08-05T16:16:46.982Z,94315.06
2022-08-05T16:19:18.872Z,94322.94
2022-08-05T16:22:00.028Z,94317.91
2022-08-05T16:24:39.937Z,94313.81
2022-08-05T16:27:16.023Z,94323.53
2022-08-05T16:29:50.249Z,94319.16
2022-08-05T16:32:28.460Z,94321.28
2022-08-05T16:34:58.942Z,94319.44
2022-08-05T16:38:15.778Z,94315.16
2022-08-05T16:40:29.194Z,94323.72
2022-08-05T16:42:58.158Z,94321.81
2022-08-05T16:46:05.827Z,94314.84
2022-08-05T16:48:25.247Z,94322.41
2022-08-05T16:50:54.259Z,94327.00
2022-08-05T16:53:32.178Z,94328.75
2022-08-05T16:56:00.866Z,94331.00
2022-08-05T16:58:29.934Z,94338.06
2022-08-05T17:00:59.664Z,94336.19
2022-08-05T17:03:27.907Z,94331.59
2022-08-05T17:05:59.711Z,94336.13
2022-08-05T17:08:33.375Z,94337.25
2022-08-05T17:11:16.891Z,94337.50
2022-08-05T17:13:45.517Z,94335.72
2022-08-05T17:16:33.455Z,94338.16
2022-08-05T17:19:02.314Z,94337.84
2022-08-05T17:21:36.010Z,94340.41
2022-08-05T17:24:18.369Z,94341.88
2022-08-05T17:26:53.735Z,94341.50
2022-08-05T17:29:33.136Z,94344.44
2022-08-05T17:32:03.826Z,94348.63
2022-08-05T17:34:34.910Z,94353.88
2022-08-05T17:37:04.659Z,94352.00
2022-08-05T17:39:51.067Z,94352.41
2022-08-05T17:42:28.349Z,94353.44
2022-08-05T17:44:58.024Z,94344.63
2022-08-05T17:47:27.856Z,94348.44
2022-08-05T17:50:10.144Z,94344.16
2022-08-05T17:52:53.246Z,94359.25
2022-08-05T17:55:34.665Z,94348.34
2022-08-05T17:58:07.182Z,94350.06
2022-08-05T18:00:44.241Z,94356.81
2022-08-05T18:03:24.116Z,94361.25
2022-08-05T18:06:06.165Z,94364.44
2022-08-05T18:08:44.604Z,94364.84
2022-08-05T18:11:24.132Z,94346.75
2022-08-05T18:14:03.390Z,94366.59
2022-08-05T18:16:32.688Z,94365.09
2022-08-05T18:19:03.734Z,94358.13
2022-08-05T18:22:07.516Z,94359.91
2022-08-05T18:24:22.894Z,94375.84
2022-08-05T18:26:50.984Z,94384.16
2022-08-05T18:29:40.818Z,94367.03
2022-08-05T18:32:12.790Z,94379.13
2022-08-05T18:34:42.956Z,94370.28
2022-08-05T18:37:12.159Z,94380.91
2022-08-05T18:40:30.885Z,94357.78
2022-08-05T18:42:29.232Z,94384.13
2022-08-05T18:44:57.498Z,94383.94
2022-08-05T18:47:25.705Z,94390.06
2022-08-05T18:50:15.423Z,94388.31
2022-08-05T18:52:50.760Z,94392.44
2022-08-05T18:55:24.066Z,94383.59
2022-08-05T18:57:54.108Z,94394.41
2022-08-05T19:00:31.381Z,94388.34
2022-08-05T19:03:03.719Z,94394.91
2022-08-05T19:06:12.424Z,94396.03
2022-08-05T19:08:30.282Z,94397.19
2022-08-05T19:11:04.428Z,94394.53
2022-08-05T19:13:36.888Z,94402.44
2022-08-05T19:16:22.173Z,94399.78
2022-08-05T19:18:56.718Z,94387.44
2022-08-05T19:21:29.504Z,94397.03
2022-08-05T19:24:08.092Z,94397.59
2022-08-05T19:26:54.333Z,94380.13
2022-08-05T19:29:35.533Z,94395.56
2022-08-05T19:32:05.569Z,94380.81
2022-08-05T19:34:36.917Z,94377.72
2022-08-05T19:37:08.055Z,94383.09
2022-08-05T19:39:45.528Z,94389.69
2022-08-05T19:42:35.124Z,94397.22
2022-08-05T19:45:05.907Z,94386.88
2022-08-05T19:47:37.390Z,94392.75
2022-08-05T19:50:07.768Z,94390.88
2022-08-05T19:52:40.944Z,94395.94
2022-08-05T19:56:14.451Z,94399.38
2022-08-05T19:58:19.633Z,94396.25
2022-08-05T20:00:47.732Z,94397.00
2022-08-05T20:03:26.470Z,94396.84
2022-08-05T20:05:56.802Z,94375.63
2022-08-05T20:08:27.633Z,94388.31
2022-08-05T20:10:59.014Z,94393.19
2022-08-05T20:13:55.029Z,94397.41
2022-08-05T20:16:15.611Z,94385.22
2022-08-05T20:18:48.414Z,94380.19
2022-08-05T20:21:25.420Z,94389.75
2022-08-05T20:23:54.830Z,94388.13
2022-08-05T20:26:25.708Z,94383.34
2022-08-05T20:28:56.248Z,94377.50
2022-08-05T20:31:28.413Z,94383.38
2022-08-05T20:34:10.004Z,94391.84
2022-08-05T20:36:38.981Z,94387.38
2022-08-05T20:39:13.251Z,94392.44
2022-08-05T20:41:44.472Z,94383.69
2022-08-05T20:44:19.053Z,94386.63
2022-08-05T20:46:57.812Z,94382.91
2022-08-05T20:49:26.333Z,94383.44
2022-08-05T20:51:54.866Z,94381.31
2022-08-05T20:54:25.396Z,94378.66
2022-08-05T20:56:53.621Z,94381.31
2022-08-05T20:59:26.424Z,94376.53
2022-08-05T21:01:57.897Z,94383.19
2022-08-05T21:04:26.931Z,94377.84
2022-08-05T21:06:55.753Z,94382.94
2022-08-05T21:09:25.336Z,94382.66
2022-08-05T21:12:07.367Z,94385.59
2022-08-05T21:14:39.116Z,94376.03
2022-08-05T21:17:07.333Z,94379.75
2022-08-05T21:19:46.391Z,94385.06
2022-08-05T21:22:23.065Z,94378.16
2022-08-05T21:24:54.335Z,94373.09
2022-08-05T21:27:24.751Z,94381.09
2022-08-05T21:29:54.101Z,94378.13
2022-08-05T21:32:24.428Z,94375.19
2022-08-05T21:35:06.915Z,94382.13
2022-08-05T21:37:42.799Z,94382.38
2022-08-05T21:40:16.870Z,94383.44
2022-08-05T21:42:45.857Z,94382.88
2022-08-05T21:45:24.085Z,94386.31
2022-08-05T21:47:55.621Z,94384.97
2022-08-05T21:50:25.367Z,94381.25
2022-08-05T21:52:53.410Z,94389.75
2022-08-05T21:56:04.119Z,94378.84
2022-08-05T21:58:11.707Z,94380.66
2022-08-05T22:00:40.312Z,94386.50
2022-08-05T22:03:09.952Z,94385.69
2022-08-05T22:05:48.587Z,94385.16
2022-08-05T22:08:22.101Z,94380.63
2022-08-05T22:10:54.237Z,94377.66
2022-08-05T22:14:06.283Z,94384.00
2022-08-05T22:16:32.221Z,94384.28
2022-08-05T22:18:58.895Z,94386.88
2022-08-05T22:21:27.008Z,94378.09
2022-08-05T22:24:40.258Z,94380.66
2022-08-05T22:27:20.707Z,94378.53
2022-08-05T22:29:49.442Z,94376.06
2022-08-05T22:32:23.102Z,94379.75
2022-08-05T22:34:52.103Z,94378.13
2022-08-05T22:37:20.899Z,94381.81
2022-08-05T22:39:50.709Z,94376.44
2022-08-05T22:42:27.577Z,94380.34
2022-08-05T22:44:57.008Z,94380.00
2022-08-05T22:47:29.684Z,94381.03
2022-08-05T22:50:21.548Z,94378.84
2022-08-05T22:52:48.239Z,94374.44
2022-08-05T22:55:19.081Z,94371.97
2022-08-05T22:57:49.900Z,94373.25
2022-08-05T23:00:20.598Z,94374.16
2022-08-05T23:02:49.945Z,94372.19
2022-08-05T23:05:19.236Z,94369.59
2022-08-05T23:07:50.801Z,94371.09
2022-08-05T23:10:19.633Z,94373.66
2022-08-05T23:12:51.705Z,94371.94
2022-08-05T23:15:26.871Z,94374.13
2022-08-05T23:18:01.670Z,94365.56
2022-08-05T23:20:32.721Z,94370.81
2022-08-05T23:23:05.923Z,94369.16
2022-08-05T23:25:53.470Z,94368.47
2022-08-05T23:28:29.234Z,94374.50
2022-08-05T23:31:15.729Z,94374.13
2022-08-05T23:34:04.333Z,94377.41
2022-08-05T23:36:38.588Z,94376.66
2022-08-05T23:39:08.596Z,94380.00
2022-08-05T23:41:37.318Z,94371.63
2022-08-05T23:44:10.509Z,94378.22
2022-08-05T23:46:39.299Z,94372.22
2022-08-05T23:49:16.158Z,94370.81
2022-08-05T23:52:03.228Z,94382.22
2022-08-05T23:54:38.423Z,94376.03
2022-08-05T23:57:07.312Z,94364.25
